createdAt,value
2023-04-22T00:01:28.852Z,1.0
2023-04-22T00:06:29.554Z,0.9
2023-04-22T00:08:10.432Z,0.9
2023-04-22T00:13:11.080Z,1.0
2023-04-22T00:18:11.625Z,0.8
2023-04-22T00:23:12.305Z,0.9
2023-04-22T00:28:12.801Z,0.9
2023-04-22T00:33:13.531Z,1.1
2023-04-22T00:38:14.010Z,1.3
2023-04-22T00:43:14.839Z,1.2
2023-04-22T00:48:15.390Z,1.0
2023-04-22T00:53:15.850Z,1.0
2023-04-22T00:58:16.656Z,1.0
2023-04-22T01:03:17.206Z,1.1
2023-04-22T01:08:17.675Z,1.1
2023-04-22T01:13:18.228Z,1.2
2023-04-22T01:18:18.863Z,1.2
2023-04-22T01:23:19.360Z,1.2
2023-04-22T01:28:20.154Z,1.2
2023-04-22T01:33:20.408Z,1.3
2023-04-22T01:38:20.855Z,1.2
2023-04-22T01:43:21.592Z,1.2
2023-04-22T01:48:21.989Z,1.1
2023-04-22T01:53:22.579Z,1.2
2023-04-22T01:58:23.235Z,1.3
2023-04-22T02:03:23.966Z,1.1
2023-04-22T02:08:24.321Z,1.3
2023-04-22T02:13:24.937Z,1.2
2023-04-22T02:18:25.543Z,0.8
2023-04-22T02:23:26.016Z,1.0
2023-04-22T02:28:26.804Z,1.0
2023-04-22T02:33:27.079Z,1.0
2023-04-22T02:38:27.711Z,0.9
2023-04-22T02:43:28.271Z,0.9
2023-04-22T02:48:28.802Z,0.8
2023-04-22T02:53:29.370Z,1.0
2023-04-22T02:58:30.004Z,1.1
2023-04-22T03:03:30.610Z,0.8
2023-04-22T03:08:30.989Z,0.8
2023-04-22T03:13:31.735Z,0.8
2023-04-22T03:18:32.162Z,0.8
2023-04-22T03:23:32.778Z,0.8
2023-04-22T03:28:33.443Z,1.0
2023-04-22T03:33:33.828Z,0.8
2023-04-22T03:38:34.477Z,1.0
2023-04-22T03:43:35.130Z,0.7
2023-04-22T03:48:35.609Z,0.9
2023-04-22T03:53:36.090Z,0.7
2023-04-22T03:58:36.720Z,0.8
2023-04-22T04:03:37.365Z,0.7
2023-04-22T04:08:37.764Z,0.9
2023-04-22T04:13:38.474Z,0.8
2023-04-22T04:18:38.889Z,1.0
2023-04-22T04:23:39.508Z,0.7
2023-04-22T04:28:40.076Z,0.7
2023-04-22T04:33:40.566Z,0.7
2023-04-22T04:38:41.111Z,0.9
2023-04-22T04:43:41.801Z,0.8
2023-04-22T04:48:42.169Z,0.6
2023-04-22T04:53:42.774Z,0.8
2023-04-22T04:58:43.509Z,1.1
2023-04-22T05:03:44.053Z,0.7
2023-04-22T05:08:44.446Z,0.9
2023-04-22T05:13:44.987Z,0.7
2023-04-22T05:18:45.568Z,0.8
2023-04-22T05:23:45.971Z,0.7
2023-04-22T05:28:47.099Z,0.8
2023-04-22T05:33:47.050Z,0.8
2023-04-22T05:38:47.499Z,0.9
2023-04-22T05:43:48.125Z,0.8
2023-04-22T05:48:48.671Z,0.6
2023-04-22T05:53:49.136Z,0.6
2023-04-22T05:58:49.881Z,0.8
2023-04-22T06:03:50.373Z,0.8
2023-04-22T06:08:50.769Z,0.6
2023-04-22T06:13:51.470Z,1.1
2023-04-22T06:18:51.853Z,0.9
2023-04-22T06:23:52.523Z,0.9
2023-04-22T06:28:53.026Z,0.8
2023-04-22T06:33:53.577Z,0.7
2023-04-22T06:38:54.142Z,0.8
2023-04-22T06:43:54.699Z,0.7
2023-04-22T06:48:55.194Z,0.9
2023-04-22T06:53:55.881Z,1.2
2023-04-22T06:58:56.457Z,1.1
2023-04-22T07:03:56.984Z,1.0
2023-04-22T07:08:57.524Z,1.2
2023-04-22T07:13:58.022Z,1.2
2023-04-22T07:18:58.492Z,1.1
2023-04-22T07:23:59.338Z,1.2
2023-04-22T07:28:59.429Z,1.1
2023-04-22T07:34:00.031Z,1.0
2023-04-22T07:39:00.812Z,1.3
2023-04-22T07:44:01.128Z,1.3
2023-04-22T07:49:01.727Z,1.7
2023-04-22T07:54:02.281Z,1.5
2023-04-22T07:59:02.727Z,1.4
2023-04-22T08:04:03.529Z,1.6
2023-04-22T08:09:03.914Z,1.2
2023-04-22T08:14:04.442Z,1.2
2023-04-22T08:19:04.917Z,1.1
2023-04-22T08:24:05.689Z,1.3
2023-04-22T08:29:06.097Z,1.4
2023-04-22T08:34:06.717Z,1.3
2023-04-22T08:39:07.288Z,1.6
2023-04-22T08:44:07.755Z,1.4
2023-04-22T08:49:08.458Z,1.2
2023-04-22T08:54:08.992Z,1.3
2023-04-22T08:59:09.613Z,1.2
2023-04-22T09:04:10.205Z,1.7
2023-04-22T09:09:10.830Z,1.8
2023-04-22T09:14:11.312Z,1.4
2023-04-22T09:19:11.864Z,1.6
2023-04-22T09:24:12.653Z,1.3
2023-04-22T09:29:13.019Z,1.4
2023-04-22T09:34:13.667Z,1.4
2023-04-22T09:39:14.246Z,1.3
2023-04-22T09:44:14.815Z,1.3
2023-04-22T09:49:15.515Z,1.5
2023-04-22T09:54:16.064Z,1.4
2023-04-22T09:59:16.684Z,1.3
2023-04-22T10:04:17.431Z,1.3
2023-04-22T10:14:18.664Z,1.3
2023-04-22T10:19:19.294Z,1.3
2023-04-22T10:24:19.876Z,1.2
2023-04-22T10:29:20.712Z,1.5
2023-04-22T10:34:21.179Z,1.4
2023-04-22T10:39:22.234Z,1.4
2023-04-22T10:44:22.717Z,1.4
2023-04-22T10:49:23.270Z,1.3
2023-04-22T10:54:23.907Z,1.4
2023-04-22T10:59:24.769Z,1.5
2023-04-22T11:04:25.407Z,1.8
2023-04-22T11:09:25.994Z,1.6
2023-04-22T11:14:26.827Z,1.4
2023-04-22T11:19:27.433Z,1.6
2023-04-22T11:24:28.142Z,1.7
2023-04-22T11:29:28.888Z,1.6
2023-04-22T11:34:43.534Z,1.6
2023-04-22T11:39:30.059Z,1.7
2023-04-22T11:44:30.773Z,1.6
2023-04-22T11:49:31.409Z,1.8
2023-04-22T11:54:32.026Z,1.8
2023-04-22T11:59:32.749Z,1.7
2023-04-22T12:04:33.373Z,1.7
2023-04-22T12:09:34.057Z,1.8
2023-04-22T12:14:34.846Z,1.7
2023-04-22T12:19:35.492Z,1.8
2023-04-22T12:24:36.566Z,1.5
2023-04-22T12:29:37.253Z,1.5
2023-04-22T12:34:37.662Z,1.8
2023-04-22T12:39:38.557Z,1.6
2023-04-22T12:44:39.067Z,1.5
2023-04-22T12:49:40.001Z,1.5
2023-04-22T12:54:40.526Z,1.6
2023-04-22T12:59:41.480Z,1.3
2023-04-22T13:04:41.889Z,1.3
2023-04-22T13:09:42.637Z,1.5
2023-04-22T13:14:43.326Z,1.3
2023-04-22T13:19:43.924Z,1.4
2023-04-22T13:24:44.920Z,1.5
2023-04-22T13:29:45.613Z,1.6
2023-04-22T13:34:46.150Z,1.6
2023-04-22T13:39:46.961Z,1.3
2023-04-22T13:44:47.771Z,1.5
2023-04-22T13:49:48.447Z,1.8
2023-04-22T13:54:49.060Z,1.6
2023-04-22T13:59:49.922Z,1.5
2023-04-22T14:04:50.521Z,1.5
2023-04-22T14:09:51.171Z,1.4
2023-04-22T14:14:52.036Z,1.8
2023-04-22T14:19:52.693Z,1.8
2023-04-22T14:24:53.675Z,1.7
2023-04-22T14:29:54.155Z,1.6
2023-04-22T14:34:54.933Z,1.8
2023-04-22T14:39:55.666Z,1.7
2023-04-22T14:44:56.467Z,1.7
2023-04-22T14:49:57.070Z,1.9
2023-04-22T14:55:00.117Z,1.7
2023-04-22T14:59:58.685Z,1.8
2023-04-22T15:04:59.462Z,1.5
2023-04-22T15:10:00.122Z,1.6
2023-04-22T15:15:01.061Z,1.7
2023-04-22T15:20:01.739Z,2.0
2023-04-22T15:25:02.506Z,1.7
2023-04-22T15:30:03.261Z,1.6
2023-04-22T15:35:03.895Z,1.7
2023-04-22T15:40:04.657Z,1.7
2023-04-22T15:45:05.479Z,1.6
2023-04-22T15:50:06.034Z,1.9
2023-04-22T15:55:06.909Z,1.7
2023-04-22T16:00:11.819Z,1.9
2023-04-22T16:05:08.438Z,2.2
2023-04-22T16:10:09.089Z,2.0
2023-04-22T16:15:10.092Z,1.7
2023-04-22T16:20:10.667Z,2.1
2023-04-22T16:25:11.971Z,2.1
2023-04-22T16:30:13.750Z,2.1
2023-04-22T16:35:13.001Z,2.0
2023-04-22T16:40:13.784Z,2.0
2023-04-22T16:45:14.611Z,2.1
2023-04-22T16:50:15.203Z,2.3
2023-04-22T16:55:15.918Z,2.3
2023-04-22T17:00:16.841Z,2.4
2023-04-22T17:05:17.503Z,2.5
2023-04-22T17:10:18.173Z,2.2
2023-04-22T17:15:19.062Z,2.3
2023-04-22T17:20:19.878Z,2.6
2023-04-22T17:25:20.788Z,2.4
2023-04-22T17:30:21.249Z,2.4
2023-04-22T17:35:21.878Z,2.2
2023-04-22T17:40:22.744Z,2.8
2023-04-22T17:45:23.576Z,2.3
2023-04-22T17:50:24.197Z,2.4
2023-04-22T17:55:24.975Z,2.5
2023-04-22T18:00:25.859Z,2.0
2023-04-22T18:05:26.557Z,2.3
2023-04-22T18:10:27.175Z,2.7
2023-04-22T18:15:28.051Z,2.6
2023-04-22T18:20:28.856Z,2.7
2023-04-22T18:25:30.122Z,2.7
2023-04-22T18:30:32.258Z,2.7
2023-04-22T18:35:30.974Z,2.3
2023-04-22T18:40:31.852Z,2.2
2023-04-22T18:45:32.563Z,3.2
2023-04-22T18:50:33.205Z,3.1
2023-04-22T18:55:33.834Z,3.0
2023-04-22T19:00:35.028Z,2.7
2023-04-22T19:05:35.443Z,2.6
2023-04-22T19:10:36.097Z,2.8
2023-04-22T19:15:37.007Z,2.7
2023-04-22T19:20:37.635Z,2.7
2023-04-22T19:25:38.701Z,2.8
2023-04-22T19:30:39.140Z,2.6
2023-04-22T19:35:39.809Z,3.3
2023-04-22T19:40:40.506Z,3.2
2023-04-22T19:45:41.325Z,2.7
2023-04-22T19:50:41.920Z,3.4
2023-04-22T19:55:42.704Z,2.7
2023-04-22T20:00:43.510Z,2.9
2023-04-22T20:05:44.062Z,2.7
2023-04-22T20:10:44.768Z,2.3
2023-04-22T20:15:45.594Z,2.3
2023-04-22T20:20:46.103Z,2.7
2023-04-22T20:25:47.375Z,2.5
2023-04-22T20:30:47.565Z,2.2
2023-04-22T20:35:48.148Z,2.8
2023-04-22T20:40:48.897Z,2.1
2023-04-22T20:45:49.731Z,1.8
2023-04-22T20:50:50.172Z,2.1
2023-04-22T20:55:50.936Z,2.3
2023-04-22T21:00:51.770Z,2.1
2023-04-22T21:05:52.241Z,3.0
2023-04-22T21:10:52.937Z,2.0
2023-04-22T21:15:53.709Z,1.9
2023-04-22T21:20:54.326Z,1.9
2023-04-22T21:25:54.993Z,1.9
2023-04-22T21:30:55.710Z,1.8
2023-04-22T21:35:56.391Z,1.9
2023-04-22T21:40:56.929Z,1.6
2023-04-22T21:45:57.776Z,1.7
2023-04-22T21:50:58.181Z,1.7
2023-04-22T21:55:58.929Z,1.8
2023-04-22T22:00:59.812Z,1.9
2023-04-22T22:06:00.361Z,1.8
2023-04-22T22:11:00.929Z,1.9
2023-04-22T22:16:01.726Z,2.2
2023-04-22T22:21:02.198Z,1.8
2023-04-22T22:26:03.463Z,1.5
2023-04-22T22:31:03.580Z,1.3
2023-04-22T22:36:04.148Z,1.7
2023-04-22T22:41:04.948Z,1.8
2023-04-22T22:46:05.716Z,1.8
2023-04-22T22:51:06.231Z,1.6
2023-04-22T22:56:06.899Z,2.1
2023-04-22T23:01:07.792Z,1.6
2023-04-22T23:06:08.189Z,2.0
2023-04-22T23:11:08.873Z,1.7
2023-04-22T23:16:09.813Z,2.4
2023-04-22T23:21:10.314Z,1.8
2023-04-22T23:26:10.932Z,1.8
2023-04-22T23:31:11.701Z,1.9
2023-04-22T23:36:12.340Z,2.0
2023-04-22T23:41:12.876Z,1.8
2023-04-22T23:46:13.741Z,1.8
2023-04-22T23:51:14.225Z,1.6
2023-04-22T23:56:14.932Z,1.8
